createdAt,value
2023-01-09T00:01:28.800Z,80.32
2023-01-09T00:03:56.421Z,80.51
2023-01-09T00:06:23.867Z,81.28
2023-01-09T00:08:50.943Z,82.57
2023-01-09T00:11:20.880Z,81.70
2023-01-09T00:13:48.078Z,82.15
2023-01-09T00:16:16.744Z,83.49
2023-01-09T00:18:44.034Z,83.03
2023-01-09T00:21:14.773Z,82.51
2023-01-09T00:23:44.118Z,82.08
2023-01-09T00:26:18.670Z,81.96
2023-01-09T00:28:47.821Z,82.10
2023-01-09T00:31:16.038Z,80.90
2023-01-09T00:33:45.870Z,81.38
2023-01-09T00:36:13.503Z,81.92
2023-01-09T00:38:41.229Z,82.05
2023-01-09T00:41:15.373Z,81.50
2023-01-09T00:43:48.810Z,83.56
2023-01-09T00:46:18.891Z,81.38
2023-01-09T00:48:48.717Z,81.89
2023-01-09T00:51:19.115Z,82.73
2023-01-09T00:53:49.064Z,84.21
2023-01-09T00:56:19.584Z,82.93
2023-01-09T00:58:47.281Z,85.59
2023-01-09T01:01:14.876Z,84.22
2023-01-09T01:03:46.233Z,85.82
2023-01-09T01:06:32.096Z,86.69
2023-01-09T01:08:59.209Z,88.13
2023-01-09T01:11:26.948Z,88.35
2023-01-09T01:13:54.282Z,86.14
2023-01-09T01:16:21.795Z,87.85
2023-01-09T01:18:48.965Z,87.26
2023-01-09T01:21:17.231Z,89.05
2023-01-09T01:23:44.926Z,91.37
2023-01-09T01:26:16.961Z,89.12
2023-01-09T01:28:44.527Z,91.53
2023-01-09T01:31:19.420Z,87.69
2023-01-09T01:33:46.415Z,87.40
2023-01-09T01:36:16.314Z,88.67
2023-01-09T01:38:44.103Z,85.64
2023-01-09T01:41:11.441Z,84.77
2023-01-09T01:44:27.814Z,86.67
2023-01-09T01:46:56.518Z,84.06
2023-01-09T01:49:23.747Z,84.28
2023-01-09T01:51:54.060Z,85.49
2023-01-09T01:54:26.379Z,87.03
2023-01-09T01:56:57.202Z,88.61
2023-01-09T01:59:33.752Z,87.49
2023-01-09T02:02:03.406Z,91.53
2023-01-09T02:04:34.695Z,88.08
2023-01-09T02:07:07.594Z,85.61
2023-01-09T02:09:35.347Z,85.72
2023-01-09T02:12:03.218Z,85.54
2023-01-09T02:14:32.584Z,85.97
2023-01-09T02:17:20.266Z,84.91
2023-01-09T02:20:32.012Z,86.39
2023-01-09T02:23:29.735Z,83.63
2023-01-09T02:26:14.651Z,84.81
2023-01-09T02:28:45.216Z,85.10
2023-01-09T02:31:37.829Z,84.90
2023-01-09T02:34:36.627Z,86.71
2023-01-09T02:37:21.948Z,87.51
2023-01-09T02:40:07.089Z,87.85
2023-01-09T02:42:36.053Z,88.66
2023-01-09T02:45:03.824Z,88.12
2023-01-09T02:47:30.928Z,88.27
2023-01-09T02:50:02.014Z,88.55
2023-01-09T02:52:48.823Z,88.20
2023-01-09T02:55:40.281Z,88.54
2023-01-09T02:58:28.938Z,90.52
2023-01-09T03:01:22.704Z,88.57
2023-01-09T03:03:50.148Z,88.39
2023-01-09T03:06:33.243Z,90.08
2023-01-09T03:09:07.227Z,88.12
2023-01-09T03:11:42.596Z,87.56
2023-01-09T03:14:14.655Z,87.94
2023-01-09T03:16:45.964Z,89.79
2023-01-09T03:19:18.244Z,88.77
2023-01-09T03:21:48.153Z,89.92
2023-01-09T03:24:15.633Z,90.41
2023-01-09T03:26:43.541Z,90.51
2023-01-09T03:29:10.791Z,88.15
2023-01-09T03:31:38.358Z,88.21
2023-01-09T03:34:05.553Z,89.26
2023-01-09T03:36:33.135Z,89.42
2023-01-09T03:39:01.558Z,88.71
2023-01-09T03:41:29.152Z,88.20
2023-01-09T03:43:56.392Z,89.19
2023-01-09T03:46:23.795Z,88.92
2023-01-09T03:48:50.911Z,87.35
2023-01-09T03:51:18.365Z,86.81
2023-01-09T03:53:45.485Z,87.68
2023-01-09T03:56:12.871Z,86.41
2023-01-09T03:58:39.978Z,86.43
2023-01-09T04:01:13.036Z,85.09
2023-01-09T04:03:40.700Z,84.59
2023-01-09T04:06:08.177Z,85.20
2023-01-09T04:08:35.240Z,86.14
2023-01-09T04:11:02.718Z,86.19
2023-01-09T04:13:29.892Z,85.34
2023-01-09T04:15:57.289Z,85.56
2023-01-09T04:18:24.402Z,86.05
2023-01-09T04:20:54.514Z,86.63
2023-01-09T04:23:22.671Z,86.55
2023-01-09T04:25:50.041Z,85.97
2023-01-09T04:28:17.169Z,85.67
2023-01-09T04:30:45.078Z,85.74
2023-01-09T04:33:12.251Z,85.76
2023-01-09T04:35:39.747Z,85.28
2023-01-09T04:38:06.871Z,84.04
2023-01-09T04:40:34.479Z,84.89
2023-01-09T04:43:01.912Z,83.88
2023-01-09T04:45:29.472Z,83.70
2023-01-09T04:47:56.620Z,84.15
2023-01-09T04:50:25.100Z,83.34
2023-01-09T04:52:52.467Z,83.50
2023-01-09T04:55:19.959Z,84.33
2023-01-09T04:57:47.022Z,83.55
2023-01-09T05:00:14.756Z,84.07
2023-01-09T05:02:42.073Z,84.80
2023-01-09T05:05:11.876Z,84.18
2023-01-09T05:07:39.494Z,83.57
2023-01-09T05:10:08.926Z,83.99
2023-01-09T05:12:36.688Z,83.18
2023-01-09T05:15:05.243Z,83.68
2023-01-09T05:17:32.485Z,83.78
2023-01-09T05:20:01.203Z,83.68
2023-01-09T05:22:28.558Z,83.71
2023-01-09T05:24:56.334Z,84.12
2023-01-09T05:27:23.534Z,83.00
2023-01-09T05:29:50.988Z,82.19
2023-01-09T05:32:18.069Z,82.62
2023-01-09T05:34:45.440Z,82.09
2023-01-09T05:37:12.518Z,81.43
2023-01-09T05:39:40.034Z,82.93
2023-01-09T05:42:07.460Z,82.58
2023-01-09T05:44:34.862Z,83.81
2023-01-09T05:47:03.504Z,83.21
2023-01-09T05:49:30.924Z,83.18
2023-01-09T05:51:58.019Z,83.57
2023-01-09T05:54:25.551Z,83.72
2023-01-09T05:56:52.653Z,83.57
2023-01-09T05:59:20.335Z,83.15
2023-01-09T06:01:47.371Z,83.04
2023-01-09T06:04:14.938Z,83.12
2023-01-09T06:06:42.131Z,83.88
2023-01-09T06:09:09.826Z,82.65
2023-01-09T06:11:38.529Z,82.87
2023-01-09T06:14:06.559Z,83.25
2023-01-09T06:16:33.639Z,83.14
2023-01-09T06:19:01.030Z,83.54
2023-01-09T06:21:29.619Z,83.58
2023-01-09T06:23:57.075Z,83.35
2023-01-09T06:26:25.551Z,84.83
2023-01-09T06:28:55.799Z,83.03
2023-01-09T06:31:24.083Z,83.09
2023-01-09T06:33:51.561Z,82.80
2023-01-09T06:36:19.997Z,83.97
2023-01-09T06:38:49.106Z,83.06
2023-01-09T06:41:16.240Z,82.89
2023-01-09T06:43:43.944Z,82.41
2023-01-09T06:46:11.048Z,82.63
2023-01-09T06:48:38.600Z,82.65
2023-01-09T06:51:05.975Z,83.29
2023-01-09T06:53:35.095Z,83.51
2023-01-09T06:56:05.169Z,83.43
2023-01-09T06:58:32.657Z,81.87
2023-01-09T07:00:59.904Z,81.53
2023-01-09T07:03:27.870Z,81.93
2023-01-09T07:05:55.636Z,81.49
2023-01-09T07:08:23.151Z,80.80
2023-01-09T07:10:50.358Z,80.60
2023-01-09T07:13:17.797Z,79.67
2023-01-09T07:15:44.980Z,79.29
2023-01-09T07:18:12.619Z,76.60
2023-01-09T07:20:41.680Z,75.22
2023-01-09T07:23:14.244Z,76.04
2023-01-09T07:25:45.155Z,76.54
2023-01-09T07:28:31.402Z,76.35
2023-01-09T07:31:02.685Z,77.06
2023-01-09T07:33:30.184Z,77.01
2023-01-09T07:35:58.266Z,78.04
2023-01-09T07:38:26.275Z,78.32
2023-01-09T07:40:53.657Z,78.21
2023-01-09T07:43:21.301Z,78.33
2023-01-09T07:45:48.381Z,78.74
2023-01-09T07:48:15.828Z,79.19
2023-01-09T07:50:42.857Z,78.63
2023-01-09T07:53:10.278Z,78.73
2023-01-09T07:55:37.386Z,78.60
2023-01-09T07:58:04.857Z,79.37
2023-01-09T08:00:33.399Z,79.11
2023-01-09T08:03:01.158Z,79.16
2023-01-09T08:05:28.370Z,79.44
2023-01-09T08:07:55.850Z,79.23
2023-01-09T08:10:22.958Z,79.48
2023-01-09T08:12:50.434Z,78.97
2023-01-09T08:15:18.225Z,79.53
2023-01-09T08:17:47.022Z,80.07
2023-01-09T08:20:16.491Z,79.56
2023-01-09T08:22:50.147Z,80.02
2023-01-09T08:25:18.266Z,79.50
2023-01-09T08:27:46.180Z,79.47
2023-01-09T08:30:14.878Z,79.13
2023-01-09T08:32:42.944Z,79.27
2023-01-09T08:35:10.422Z,79.36
2023-01-09T08:37:37.856Z,79.29
2023-01-09T08:40:08.568Z,79.69
2023-01-09T08:42:54.882Z,79.00
2023-01-09T08:45:40.554Z,79.64
2023-01-09T08:48:08.402Z,79.95
2023-01-09T08:50:35.580Z,79.81
2023-01-09T08:53:03.512Z,79.33
2023-01-09T08:55:30.751Z,79.13
2023-01-09T08:57:58.143Z,79.33
2023-01-09T09:00:25.642Z,78.82
2023-01-09T09:02:59.502Z,78.41
2023-01-09T09:05:28.415Z,77.64
2023-01-09T09:07:56.796Z,77.46
2023-01-09T09:10:26.431Z,77.54
2023-01-09T09:12:56.936Z,77.27
2023-01-09T09:15:25.193Z,76.78
2023-01-09T09:17:58.168Z,76.72
2023-01-09T09:20:28.877Z,76.66
2023-01-09T09:22:56.634Z,76.97
2023-01-09T09:25:23.999Z,76.99
2023-01-09T09:27:52.276Z,76.99
2023-01-09T09:30:20.278Z,76.54
2023-01-09T09:32:47.764Z,76.51
2023-01-09T09:35:15.575Z,76.60
2023-01-09T09:37:44.422Z,77.70
2023-01-09T09:40:20.359Z,79.26
2023-01-09T09:43:44.276Z,80.23
2023-01-09T09:46:47.793Z,81.25
2023-01-09T09:49:22.063Z,81.86
2023-01-09T09:52:13.896Z,81.55
2023-01-09T09:54:49.062Z,82.20
2023-01-09T09:57:19.518Z,82.93
2023-01-09T09:59:52.031Z,83.23
2023-01-09T10:02:29.653Z,84.12
2023-01-09T10:05:04.749Z,83.79
2023-01-09T10:07:38.874Z,85.53
2023-01-09T10:10:11.027Z,84.21
2023-01-09T10:12:53.837Z,85.52
2023-01-09T10:16:02.345Z,87.02
2023-01-09T10:19:06.691Z,87.99
2023-01-09T10:21:52.547Z,90.96
2023-01-09T10:24:37.674Z,89.52
2023-01-09T10:27:19.779Z,92.26
2023-01-09T10:30:03.307Z,92.96
2023-01-09T10:32:36.827Z,92.95
2023-01-09T10:35:46.977Z,96.43
2023-01-09T10:38:21.606Z,98.70
2023-01-09T10:41:03.337Z,99.11
2023-01-09T10:43:45.879Z,100.00
2023-01-09T10:46:22.153Z,100.00
2023-01-09T10:48:59.479Z,100.00
2023-01-09T10:51:46.997Z,100.00
2023-01-09T10:54:18.593Z,100.00
2023-01-09T10:56:54.969Z,100.00
2023-01-09T10:59:24.490Z,100.00
2023-01-09T11:01:51.916Z,100.00
2023-01-09T11:04:37.776Z,100.00
2023-01-09T11:07:21.748Z,100.00
2023-01-09T11:09:56.903Z,100.00
2023-01-09T11:12:26.671Z,100.00
2023-01-09T11:14:56.329Z,100.00
2023-01-09T11:17:27.563Z,100.00
2023-01-09T11:20:08.616Z,100.00
2023-01-09T11:22:44.934Z,100.00
2023-01-09T11:25:17.293Z,100.00
2023-01-09T11:27:45.311Z,100.00
2023-01-09T11:30:12.765Z,98.77
2023-01-09T11:32:39.968Z,97.52
2023-01-09T11:35:17.389Z,96.78
2023-01-09T11:37:46.254Z,95.66
2023-01-09T11:40:20.475Z,95.16
2023-01-09T11:43:11.631Z,95.66
2023-01-09T11:46:00.505Z,95.34
2023-01-09T11:48:31.897Z,95.47
2023-01-09T11:51:01.099Z,95.75
2023-01-09T11:53:28.785Z,94.76
2023-01-09T11:56:04.510Z,97.91
2023-01-09T11:58:35.210Z,95.72
2023-01-09T12:01:33.432Z,98.40
2023-01-09T12:04:23.519Z,98.97
2023-01-09T12:07:26.506Z,98.20
2023-01-09T12:10:11.695Z,98.71
2023-01-09T12:13:02.547Z,100.00
2023-01-09T12:15:41.695Z,100.00
2023-01-09T12:18:34.168Z,100.00
2023-01-09T12:21:10.837Z,100.00
2023-01-09T12:24:23.099Z,100.00
2023-01-09T12:27:22.078Z,100.00
2023-01-09T12:30:05.125Z,100.00
2023-01-09T12:33:01.830Z,100.00
2023-01-09T12:35:47.640Z,100.00
2023-01-09T12:38:33.517Z,100.00
2023-01-09T12:41:38.282Z,100.00
2023-01-09T12:44:18.142Z,100.00
2023-01-09T12:47:07.059Z,100.00
2023-01-09T12:49:39.504Z,100.00
2023-01-09T12:52:17.477Z,100.00
2023-01-09T12:54:53.752Z,100.00
2023-01-09T12:57:30.369Z,100.00
2023-01-09T13:00:20.788Z,100.00
2023-01-09T13:03:11.974Z,100.00
2023-01-09T13:05:46.127Z,100.00
2023-01-09T13:08:37.942Z,100.00
2023-01-09T13:11:20.397Z,100.00
2023-01-09T13:14:09.986Z,100.00
2023-01-09T13:16:42.507Z,100.00
2023-01-09T13:19:25.298Z,99.45
2023-01-09T13:21:53.756Z,99.05
2023-01-09T13:24:34.355Z,97.53
2023-01-09T13:27:08.847Z,97.11
2023-01-09T13:29:44.217Z,94.58
2023-01-09T13:32:23.503Z,94.13
2023-01-09T13:34:55.066Z,92.53
2023-01-09T13:37:31.420Z,90.63
2023-01-09T13:40:00.879Z,88.73
2023-01-09T13:42:36.738Z,87.35
2023-01-09T13:45:25.512Z,86.04
2023-01-09T13:48:11.376Z,85.52
2023-01-09T13:50:39.628Z,85.54
2023-01-09T13:53:32.273Z,85.19
2023-01-09T13:55:59.905Z,86.21
2023-01-09T13:58:32.053Z,86.31
2023-01-09T14:01:03.294Z,85.39
2023-01-09T14:03:36.714Z,86.76
2023-01-09T14:06:13.170Z,87.55
2023-01-09T14:08:42.139Z,88.62
2023-01-09T14:11:19.182Z,89.10
2023-01-09T14:13:47.323Z,90.21
2023-01-09T14:16:24.981Z,94.00
2023-01-09T14:19:25.629Z,100.00
2023-01-09T14:21:56.170Z,100.00
2023-01-09T14:24:31.508Z,100.00
2023-01-09T14:27:01.322Z,100.00
2023-01-09T14:29:31.263Z,100.00
2023-01-09T14:32:23.731Z,100.00
2023-01-09T14:34:57.851Z,100.00
2023-01-09T14:37:28.206Z,100.00
2023-01-09T14:39:56.710Z,100.00
2023-01-09T14:42:28.714Z,100.00
2023-01-09T14:45:04.385Z,100.00
2023-01-09T14:47:31.799Z,100.00
2023-01-09T14:50:17.734Z,100.00
2023-01-09T14:52:49.343Z,100.00
2023-01-09T14:55:36.323Z,100.00
2023-01-09T14:58:20.521Z,100.00
2023-01-09T15:01:10.768Z,100.00
2023-01-09T15:03:40.680Z,100.00
2023-01-09T15:06:15.295Z,100.00
2023-01-09T15:09:06.071Z,100.00
2023-01-09T15:11:36.999Z,100.00
2023-01-09T15:14:06.680Z,100.00
2023-01-09T15:16:33.884Z,100.00
2023-01-09T15:19:07.696Z,100.00
2023-01-09T15:21:35.063Z,100.00
2023-01-09T15:24:23.072Z,100.00
2023-01-09T15:26:55.384Z,100.00
2023-01-09T15:29:23.186Z,100.00
2023-01-09T15:31:55.722Z,100.00
2023-01-09T15:34:25.758Z,100.00
2023-01-09T15:36:53.930Z,100.00
2023-01-09T15:39:40.187Z,100.00
2023-01-09T15:42:41.604Z,100.00
2023-01-09T15:45:29.606Z,100.00
2023-01-09T15:48:31.002Z,100.00
2023-01-09T15:51:12.110Z,100.00
2023-01-09T15:53:43.172Z,100.00
2023-01-09T15:56:13.667Z,100.00
2023-01-09T15:58:47.326Z,100.00
2023-01-09T16:01:24.082Z,100.00
2023-01-09T16:03:51.885Z,100.00
2023-01-09T16:06:27.881Z,100.00
2023-01-09T16:08:58.027Z,100.00
2023-01-09T16:11:35.031Z,100.00
2023-01-09T16:14:34.915Z,100.00
2023-01-09T16:17:07.413Z,100.00
2023-01-09T16:20:12.098Z,100.00
2023-01-09T16:22:56.579Z,100.00
2023-01-09T16:25:37.038Z,100.00
2023-01-09T16:28:30.749Z,100.00
2023-01-09T16:31:03.754Z,100.00
2023-01-09T16:33:32.059Z,100.00
2023-01-09T16:35:59.382Z,100.00
2023-01-09T16:38:27.442Z,100.00
2023-01-09T16:41:26.952Z,100.00
2023-01-09T16:43:57.312Z,100.00
2023-01-09T16:46:24.748Z,100.00
2023-01-09T16:48:53.856Z,100.00
2023-01-09T16:51:23.058Z,100.00
2023-01-09T16:53:50.482Z,100.00
2023-01-09T16:56:27.636Z,100.00
2023-01-09T16:58:55.111Z,100.00
2023-01-09T17:01:23.753Z,100.00
2023-01-09T17:03:52.637Z,100.00
2023-01-09T17:06:39.500Z,100.00
2023-01-09T17:09:07.218Z,100.00
2023-01-09T17:11:34.321Z,100.00
2023-01-09T17:14:02.466Z,100.00
2023-01-09T17:16:30.711Z,100.00
2023-01-09T17:18:58.173Z,100.00
2023-01-09T17:21:30.920Z,100.00
2023-01-09T17:24:18.323Z,100.00
2023-01-09T17:27:09.725Z,100.00
2023-01-09T17:29:37.664Z,100.00
2023-01-09T17:32:04.983Z,100.00
2023-01-09T17:34:33.843Z,100.00
2023-01-09T17:37:03.100Z,100.00
2023-01-09T17:39:31.754Z,100.00
2023-01-09T17:42:01.979Z,100.00
2023-01-09T17:44:29.815Z,100.00
2023-01-09T17:46:56.986Z,100.00
2023-01-09T17:49:24.577Z,100.00
2023-01-09T17:51:52.403Z,100.00
2023-01-09T17:54:21.322Z,100.00
2023-01-09T17:56:51.225Z,100.00
2023-01-09T17:59:19.076Z,100.00
2023-01-09T18:01:47.127Z,100.00
2023-01-09T18:04:14.710Z,100.00
2023-01-09T18:06:41.860Z,100.00
2023-01-09T18:09:14.778Z,100.00
2023-01-09T18:11:42.093Z,100.00
2023-01-09T18:14:11.221Z,100.00
2023-01-09T18:16:39.312Z,100.00
2023-01-09T18:19:06.929Z,100.00
2023-01-09T18:21:34.254Z,100.00
2023-01-09T18:24:02.029Z,100.00
2023-01-09T18:26:29.323Z,100.00
2023-01-09T18:28:59.354Z,100.00
2023-01-09T18:31:28.099Z,100.00
2023-01-09T18:33:57.959Z,100.00
2023-01-09T18:36:29.737Z,100.00
2023-01-09T18:39:02.419Z,100.00
2023-01-09T18:41:30.741Z,100.00
2023-01-09T18:44:00.281Z,100.00
2023-01-09T18:46:32.065Z,100.00
2023-01-09T18:49:03.130Z,100.00
2023-01-09T18:51:31.635Z,100.00
2023-01-09T18:53:59.005Z,100.00
2023-01-09T18:56:26.467Z,100.00
2023-01-09T18:58:57.217Z,100.00
2023-01-09T19:01:25.325Z,100.00
2023-01-09T19:03:53.344Z,100.00
2023-01-09T19:06:21.785Z,100.00
2023-01-09T19:08:49.440Z,100.00
2023-01-09T19:11:16.614Z,100.00
2023-01-09T19:13:44.375Z,100.00
2023-01-09T19:16:11.686Z,100.00
2023-01-09T19:18:44.766Z,100.00
2023-01-09T19:21:16.507Z,100.00
2023-01-09T19:23:45.315Z,100.00
2023-01-09T19:26:20.480Z,100.00
2023-01-09T19:28:48.262Z,100.00
2023-01-09T19:31:16.131Z,100.00
2023-01-09T19:33:44.961Z,100.00
2023-01-09T19:36:12.770Z,100.00
2023-01-09T19:38:41.467Z,100.00
2023-01-09T19:41:14.627Z,100.00
2023-01-09T19:43:42.346Z,100.00
2023-01-09T19:46:13.147Z,100.00
2023-01-09T19:48:42.675Z,100.00
2023-01-09T19:51:11.094Z,100.00
2023-01-09T19:53:39.735Z,100.00
2023-01-09T19:56:14.777Z,100.00
2023-01-09T19:58:43.893Z,100.00
2023-01-09T20:01:14.696Z,100.00
2023-01-09T20:03:44.318Z,100.00
2023-01-09T20:06:14.472Z,100.00
2023-01-09T20:08:53.809Z,100.00
2023-01-09T20:11:23.388Z,100.00
2023-01-09T20:13:51.017Z,100.00
2023-01-09T20:16:22.971Z,100.00
2023-01-09T20:18:50.519Z,100.00
2023-01-09T20:21:21.826Z,100.00
2023-01-09T20:23:53.255Z,100.00
2023-01-09T20:26:29.219Z,100.00
2023-01-09T20:29:01.908Z,100.00
2023-01-09T20:31:33.228Z,100.00
2023-01-09T20:34:02.938Z,100.00
2023-01-09T20:36:32.577Z,100.00
2023-01-09T20:39:02.010Z,100.00
2023-01-09T20:41:31.588Z,100.00
2023-01-09T20:44:04.999Z,100.00
2023-01-09T20:46:36.957Z,100.00
2023-01-09T20:49:08.766Z,100.00
2023-01-09T20:51:41.609Z,100.00
2023-01-09T20:54:09.265Z,100.00
2023-01-09T20:56:37.290Z,100.00
2023-01-09T20:59:06.624Z,100.00
2023-01-09T21:01:35.917Z,100.00
2023-01-09T21:04:10.557Z,100.00
2023-01-09T21:06:38.045Z,100.00
2023-01-09T21:09:05.978Z,100.00
2023-01-09T21:11:35.455Z,100.00
2023-01-09T21:14:05.698Z,100.00
2023-01-09T21:16:34.057Z,100.00
2023-01-09T21:19:02.970Z,100.00
2023-01-09T21:21:35.206Z,100.00
2023-01-09T21:24:07.821Z,100.00
2023-01-09T21:26:39.607Z,100.00
2023-01-09T21:29:08.713Z,100.00
2023-01-09T21:31:37.113Z,100.00
2023-01-09T21:34:07.231Z,100.00
2023-01-09T21:36:36.851Z,100.00
2023-01-09T21:39:08.129Z,100.00
2023-01-09T21:41:55.023Z,100.00
2023-01-09T21:44:42.687Z,100.00
2023-01-09T21:47:10.974Z,100.00
2023-01-09T21:49:44.517Z,100.00
2023-01-09T21:52:13.132Z,100.00
2023-01-09T21:54:41.904Z,100.00
2023-01-09T21:57:11.803Z,100.00
2023-01-09T21:59:39.378Z,100.00
2023-01-09T22:02:07.025Z,100.00
2023-01-09T22:04:34.770Z,100.00
2023-01-09T22:07:01.869Z,100.00
2023-01-09T22:09:29.305Z,100.00
2023-01-09T22:11:57.882Z,100.00
2023-01-09T22:14:25.368Z,100.00
2023-01-09T22:16:52.464Z,100.00
2023-01-09T22:19:19.959Z,100.00
2023-01-09T22:21:47.232Z,100.00
2023-01-09T22:24:16.909Z,100.00
2023-01-09T22:26:46.411Z,100.00
2023-01-09T22:29:16.605Z,100.00
2023-01-09T22:31:45.422Z,100.00
2023-01-09T22:34:18.394Z,100.00
2023-01-09T22:36:46.703Z,100.00
2023-01-09T22:39:15.990Z,100.00
2023-01-09T22:41:43.396Z,100.00
2023-01-09T22:44:12.211Z,100.00
2023-01-09T22:46:39.602Z,100.00
2023-01-09T22:49:07.084Z,100.00
2023-01-09T22:51:34.261Z,100.00
2023-01-09T22:54:02.017Z,100.00
2023-01-09T22:56:29.392Z,100.00
2023-01-09T22:58:59.122Z,100.00
2023-01-09T23:01:26.486Z,100.00
2023-01-09T23:03:53.988Z,100.00
2023-01-09T23:06:23.289Z,100.00
2023-01-09T23:08:52.874Z,100.00
2023-01-09T23:11:48.150Z,100.00
2023-01-09T23:14:17.221Z,100.00
2023-01-09T23:16:45.385Z,100.00
2023-01-09T23:19:14.692Z,100.00
2023-01-09T23:21:43.420Z,100.00
2023-01-09T23:24:12.622Z,100.00
2023-01-09T23:26:40.522Z,100.00
2023-01-09T23:29:10.521Z,100.00
2023-01-09T23:31:39.789Z,100.00
2023-01-09T23:34:08.801Z,100.00
2023-01-09T23:36:37.284Z,100.00
2023-01-09T23:39:09.133Z,100.00
2023-01-09T23:42:09.546Z,100.00
2023-01-09T23:44:36.970Z,100.00
2023-01-09T23:47:04.207Z,100.00
2023-01-09T23:49:31.570Z,100.00
2023-01-09T23:52:01.672Z,100.00
2023-01-09T23:54:29.154Z,100.00
2023-01-09T23:56:56.650Z,100.00
2023-01-09T23:59:24.164Z,100.00
